sensor_id;sensor_type;location;lat;lon;timestamp;pressure;altitude;pressure_sealevel;temperature;humidity
34185;BME280;20454;48.100;11.776;2022-08-19T00:01:32;94970.94;;;19.10;96.35
34185;BME280;20454;48.100;11.776;2022-08-19T00:04:03;94963.66;;;19.05;96.63
34185;BME280;20454;48.100;11.776;2022-08-19T00:06:30;94960.44;;;19.07;96.73
34185;BME280;20454;48.100;11.776;2022-08-19T00:08:57;94958.44;;;19.07;96.66
34185;BME280;20454;48.100;11.776;2022-08-19T00:11:26;94937.88;;;19.07;96.72
34185;BME280;20454;48.100;11.776;2022-08-19T00:13:54;94925.03;;;19.09;96.60
34185;BME280;20454;48.100;11.776;2022-08-19T00:16:20;94922.19;;;19.06;96.57
34185;BME280;20454;48.100;11.776;2022-08-19T00:18:47;94938.31;;;19.09;96.12
34185;BME280;20454;48.100;11.776;2022-08-19T00:21:14;94913.72;;;19.06;96.13
34185;BME280;20454;48.100;11.776;2022-08-19T00:23:40;94912.50;;;19.07;95.59
34185;BME280;20454;48.100;11.776;2022-08-19T00:26:07;94908.06;;;19.06;95.92
34185;BME280;20454;48.100;11.776;2022-08-19T00:28:33;94893.03;;;18.91;95.85
34185;BME280;20454;48.100;11.776;2022-08-19T00:31:06;94914.91;;;19.05;95.69
34185;BME280;20454;48.100;11.776;2022-08-19T00:33:32;94916.91;;;19.04;95.45
34185;BME280;20454;48.100;11.776;2022-08-19T00:36:05;94915.31;;;19.03;95.38
34185;BME280;20454;48.100;11.776;2022-08-19T00:38:33;94917.78;;;19.08;95.29
34185;BME280;20454;48.100;11.776;2022-08-19T00:40:59;94922.94;;;19.03;95.24
34185;BME280;20454;48.100;11.776;2022-08-19T00:43:27;94918.91;;;19.04;94.99
34185;BME280;20454;48.100;11.776;2022-08-19T00:45:53;94914.09;;;19.04;95.03
34185;BME280;20454;48.100;11.776;2022-08-19T00:48:21;94901.22;;;19.07;94.66
34185;BME280;20454;48.100;11.776;2022-08-19T00:50:49;94897.16;;;19.01;94.88
34185;BME280;20454;48.100;11.776;2022-08-19T00:53:22;94898.78;;;19.05;94.60
34185;BME280;20454;48.100;11.776;2022-08-19T00:55:51;94884.31;;;19.07;94.38
34185;BME280;20454;48.100;11.776;2022-08-19T00:58:21;94887.53;;;19.09;94.83
34185;BME280;20454;48.100;11.776;2022-08-19T01:00:47;94886.78;;;19.12;94.34
34185;BME280;20454;48.100;11.776;2022-08-19T01:03:19;94882.34;;;19.14;94.40
34185;BME280;20454;48.100;11.776;2022-08-19T01:05:46;94883.53;;;19.13;93.56
34185;BME280;20454;48.100;11.776;2022-08-19T01:08:15;94890.00;;;19.14;93.18
34185;BME280;20454;48.100;11.776;2022-08-19T01:10:54;94887.97;;;19.14;93.49
34185;BME280;20454;48.100;11.776;2022-08-19T01:13:23;94858.13;;;19.10;93.30
34185;BME280;20454;48.100;11.776;2022-08-19T01:16:04;94853.31;;;19.10;93.41
34185;BME280;20454;48.100;11.776;2022-08-19T01:18:32;94862.97;;;19.09;93.21
34185;BME280;20454;48.100;11.776;2022-08-19T01:21:05;94883.50;;;19.06;93.41
34185;BME280;20454;48.100;11.776;2022-08-19T01:23:33;94894.34;;;19.04;93.86
34185;BME280;20454;48.100;11.776;2022-08-19T01:26:15;94893.94;;;19.02;93.78
34185;BME280;20454;48.100;11.776;2022-08-19T01:28:43;94912.06;;;19.01;94.19
34185;BME280;20454;48.100;11.776;2022-08-19T01:31:19;94930.56;;;18.99;94.42
34185;BME280;20454;48.100;11.776;2022-08-19T01:33:48;94949.47;;;18.98;94.64
34185;BME280;20454;48.100;11.776;2022-08-19T01:36:23;94960.75;;;18.98;94.41
34185;BME280;20454;48.100;11.776;2022-08-19T01:38:52;94959.59;;;19.03;94.29
34185;BME280;20454;48.100;11.776;2022-08-19T01:41:18;94937.03;;;19.03;94.25
34185;BME280;20454;48.100;11.776;2022-08-19T01:43:44;94947.97;;;19.08;94.09
34185;BME280;20454;48.100;11.776;2022-08-19T01:46:11;94945.97;;;19.08;93.74
34185;BME280;20454;48.100;11.776;2022-08-19T01:48:41;94935.88;;;19.07;93.85
34185;BME280;20454;48.100;11.776;2022-08-19T01:51:08;94939.94;;;19.13;93.55
34185;BME280;20454;48.100;11.776;2022-08-19T01:53:36;94950.84;;;19.15;93.27
34185;BME280;20454;48.100;11.776;2022-08-19T01:56:03;94952.47;;;19.16;92.84
34185;BME280;20454;48.100;11.776;2022-08-19T01:58:36;94934.78;;;19.19;92.45
34185;BME280;20454;48.100;11.776;2022-08-19T04:31:25;94952.25;;;18.91;93.16
34185;BME280;20454;48.100;11.776;2022-08-19T04:33:59;94955.06;;;18.91;93.20
34185;BME280;20454;48.100;11.776;2022-08-19T04:36:33;94947.41;;;18.88;92.85
34185;BME280;20454;48.100;11.776;2022-08-19T04:39:26;94955.88;;;18.92;92.71
34185;BME280;20454;48.100;11.776;2022-08-19T04:42:11;94962.75;;;18.94;93.08
34185;BME280;20454;48.100;11.776;2022-08-19T04:44:56;94958.25;;;18.90;92.94
34185;BME280;20454;48.100;11.776;2022-08-19T04:47:22;94970.81;;;18.96;92.80
34185;BME280;20454;48.100;11.776;2022-08-19T04:49:48;94980.88;;;18.97;92.58
34185;BME280;20454;48.100;11.776;2022-08-19T04:52:14;94972.03;;;18.98;92.28
34185;BME280;20454;48.100;11.776;2022-08-19T04:54:40;94976.47;;;18.99;92.23
34185;BME280;20454;48.100;11.776;2022-08-19T04:57:09;94971.69;;;19.03;92.42
34185;BME280;20454;48.100;11.776;2022-08-19T04:59:37;94982.59;;;19.05;92.41
34185;BME280;20454;48.100;11.776;2022-08-19T05:02:04;94981.41;;;19.06;92.36
34185;BME280;20454;48.100;11.776;2022-08-19T05:04:30;94979.38;;;19.06;92.50
34185;BME280;20454;48.100;11.776;2022-08-19T05:06:57;94975.78;;;19.09;92.90
34185;BME280;20454;48.100;11.776;2022-08-19T05:09:23;94989.47;;;19.11;92.94
34185;BME280;20454;48.100;11.776;2022-08-19T05:11:48;94993.13;;;19.11;92.68
34185;BME280;20454;48.100;11.776;2022-08-19T05:14:16;94992.72;;;19.09;91.51
34185;BME280;20454;48.100;11.776;2022-08-19T05:16:42;94992.72;;;19.09;91.01
34185;BME280;20454;48.100;11.776;2022-08-19T05:19:08;94976.13;;;19.04;90.92
34185;BME280;20454;48.100;11.776;2022-08-19T05:21:52;94979.81;;;19.08;90.44
34185;BME280;20454;48.100;11.776;2022-08-19T05:24:37;94984.63;;;19.08;90.36
34185;BME280;20454;48.100;11.776;2022-08-19T05:27:03;94984.25;;;19.09;90.16
34185;BME280;20454;48.100;11.776;2022-08-19T05:29:31;94980.97;;;19.07;90.33
34185;BME280;20454;48.100;11.776;2022-08-19T05:31:58;94986.66;;;19.11;90.06
34185;BME280;20454;48.100;11.776;2022-08-19T05:34:26;94980.59;;;19.09;90.38
34185;BME280;20454;48.100;11.776;2022-08-19T05:36:58;94978.19;;;19.11;90.23
34185;BME280;20454;48.100;11.776;2022-08-19T05:39:29;94969.75;;;19.11;90.26
34185;BME280;20454;48.100;11.776;2022-08-19T05:42:00;94962.47;;;19.10;90.31
34185;BME280;20454;48.100;11.776;2022-08-19T05:44:30;94964.50;;;19.09;90.24
34185;BME280;20454;48.100;11.776;2022-08-19T05:46:58;94965.72;;;19.08;90.65
34185;BME280;20454;48.100;11.776;2022-08-19T05:49:26;94970.53;;;19.08;90.89
34185;BME280;20454;48.100;11.776;2022-08-19T05:51:52;94970.16;;;19.09;91.66
34185;BME280;20454;48.100;11.776;2022-08-19T05:54:19;94963.72;;;19.12;93.02
34185;BME280;20454;48.100;11.776;2022-08-19T05:56:45;94966.13;;;19.10;93.56
34185;BME280;20454;48.100;11.776;2022-08-19T05:59:15;94955.22;;;19.09;93.83
34185;BME280;20454;48.100;11.776;2022-08-19T06:01:44;94963.34;;;19.14;94.13
34185;BME280;20454;48.100;11.776;2022-08-19T06:04:12;94967.81;;;19.18;94.91
34185;BME280;20454;48.100;11.776;2022-08-19T06:06:41;94971.00;;;19.17;94.61
34185;BME280;20454;48.100;11.776;2022-08-19T06:09:08;94967.78;;;19.15;94.49
34185;BME280;20454;48.100;11.776;2022-08-19T06:14:10;94977.81;;;19.12;96.02
34185;BME280;20454;48.100;11.776;2022-08-19T06:16:38;94980.59;;;19.09;96.10
34185;BME280;20454;48.100;11.776;2022-08-19T06:19:09;94976.13;;;19.04;96.65
34185;BME280;20454;48.100;11.776;2022-08-19T06:21:38;94974.94;;;19.05;97.03
34185;BME280;20454;48.100;11.776;2022-08-19T06:24:07;94988.66;;;19.07;97.82
34185;BME280;20454;48.100;11.776;2022-08-19T06:26:36;94977.75;;;19.05;97.86
34185;BME280;20454;48.100;11.776;2022-08-19T06:29:05;94977.75;;;19.05;98.49
34185;BME280;20454;48.100;11.776;2022-08-19T06:31:34;94978.59;;;19.09;98.92
34185;BME280;20454;48.100;11.776;2022-08-19T06:34:04;94970.16;;;19.09;99.18
34185;BME280;20454;48.100;11.776;2022-08-19T06:36:34;94965.34;;;19.13;98.94
34185;BME280;20454;48.100;11.776;2022-08-19T06:39:10;94975.03;;;19.16;98.98
34185;BME280;20454;48.100;11.776;2022-08-19T06:41:41;94974.31;;;19.22;99.47
34185;BME280;20454;48.100;11.776;2022-08-19T06:44:08;94973.94;;;19.27;99.96
34185;BME280;20454;48.100;11.776;2022-08-19T06:46:35;94980.81;;;19.30;100.00
34185;BME280;20454;48.100;11.776;2022-08-19T06:49:01;94987.72;;;19.36;100.00
34185;BME280;20454;48.100;11.776;2022-08-19T06:51:27;94988.13;;;19.38;100.00
34185;BME280;20454;48.100;11.776;2022-08-19T06:53:54;94989.00;;;19.42;100.00
34185;BME280;20454;48.100;11.776;2022-08-19T06:56:25;94983.78;;;19.47;100.00
34185;BME280;20454;48.100;11.776;2022-08-19T06:58:58;94986.19;;;19.45;100.00
34185;BME280;20454;48.100;11.776;2022-08-19T07:01:24;94976.88;;;19.41;99.94
34185;BME280;20454;48.100;11.776;2022-08-19T07:03:49;94980.59;;;19.49;100.00
34185;BME280;20454;48.100;11.776;2022-08-19T07:06:17;94976.97;;;19.52;100.00
34185;BME280;20454;48.100;11.776;2022-08-19T07:08:47;94971.00;;;19.60;100.00
34185;BME280;20454;48.100;11.776;2022-08-19T07:11:16;94966.59;;;19.66;99.89
34185;BME280;20454;48.100;11.776;2022-08-19T07:13:44;94957.34;;;19.73;99.33
34185;BME280;20454;48.100;11.776;2022-08-19T07:16:18;94940.91;;;19.85;100.00
34185;BME280;20454;48.100;11.776;2022-08-19T07:18:49;94939.78;;;19.97;98.92
34185;BME280;20454;48.100;11.776;2022-08-19T07:21:19;94933.38;;;20.07;97.56
34185;BME280;20454;48.100;11.776;2022-08-19T07:23:46;94930.63;;;20.21;95.54
34185;BME280;20454;48.100;11.776;2022-08-19T07:26:26;94927.06;;;20.34;94.85
34185;BME280;20454;48.100;11.776;2022-08-19T07:28:53;94919.44;;;20.52;93.84
34185;BME280;20454;48.100;11.776;2022-08-19T07:31:24;94918.69;;;20.69;93.64
34185;BME280;20454;48.100;11.776;2022-08-19T07:33:52;94918.72;;;20.86;93.62
34185;BME280;20454;48.100;11.776;2022-08-19T07:36:24;94905.84;;;20.96;92.03
34185;BME280;20454;48.100;11.776;2022-08-19T07:38:51;94918.38;;;21.12;90.78
34185;BME280;20454;48.100;11.776;2022-08-19T07:41:24;94920.78;;;21.24;89.94
34185;BME280;20454;48.100;11.776;2022-08-19T07:43:51;94909.06;;;21.36;90.00
34185;BME280;20454;48.100;11.776;2022-08-19T09:04:38;94990.56;;;19.90;99.48
34185;BME280;20454;48.100;11.776;2022-08-19T09:14:50;94988.00;;;20.35;95.87
34185;BME280;20454;48.100;11.776;2022-08-19T09:17:27;94992.91;;;20.48;94.03
34185;BME280;20454;48.100;11.776;2022-08-19T09:22:37;94984.19;;;20.92;94.13
34185;BME280;20454;48.100;11.776;2022-08-19T09:25:05;94973.75;;;21.13;91.24
34185;BME280;20454;48.100;11.776;2022-08-19T09:27:37;94985.09;;;21.34;88.76
34185;BME280;20454;48.100;11.776;2022-08-19T09:30:05;94987.94;;;21.38;85.68
34185;BME280;20454;48.100;11.776;2022-08-19T09:32:33;94989.94;;;21.48;87.36
34185;BME280;20454;48.100;11.776;2022-08-19T09:34:59;94993.19;;;21.60;87.73
34185;BME280;20454;48.100;11.776;2022-08-19T09:37:27;95000.03;;;21.63;84.97
34185;BME280;20454;48.100;11.776;2022-08-19T09:39:53;94979.84;;;21.68;85.66
34185;BME280;20454;48.100;11.776;2022-08-19T09:42:20;94972.16;;;21.86;85.08
34185;BME280;20454;48.100;11.776;2022-08-19T09:44:46;94979.38;;;22.15;82.74
34185;BME280;20454;48.100;11.776;2022-08-19T09:47:13;94976.06;;;22.41;79.37
34185;BME280;20454;48.100;11.776;2022-08-19T09:49:40;94977.94;;;22.82;76.68
34185;BME280;20454;48.100;11.776;2022-08-19T09:52:09;94972.88;;;23.21;75.47
34185;BME280;20454;48.100;11.776;2022-08-19T09:54:38;94980.34;;;23.56;73.31
34185;BME280;20454;48.100;11.776;2022-08-19T09:57:04;94980.94;;;23.81;72.55
34185;BME280;20454;48.100;11.776;2022-08-19T09:59:30;94980.00;;;23.98;73.71
34185;BME280;20454;48.100;11.776;2022-08-19T10:01:56;94974.22;;;24.08;73.13
34185;BME280;20454;48.100;11.776;2022-08-19T10:04:22;94986.28;;;24.19;73.13
34185;BME280;20454;48.100;11.776;2022-08-19T10:06:50;94976.66;;;24.06;72.50
34185;BME280;20454;48.100;11.776;2022-08-19T10:09:17;94980.47;;;23.93;71.31
34185;BME280;20454;48.100;11.776;2022-08-19T10:11:45;94993.16;;;23.74;70.76
34185;BME280;20454;48.100;11.776;2022-08-19T10:14:14;94990.19;;;23.41;70.70
34185;BME280;20454;48.100;11.776;2022-08-19T10:16:40;94990.34;;;23.16;70.95
34185;BME280;20454;48.100;11.776;2022-08-19T10:19:07;94996.03;;;23.09;72.31
34185;BME280;20454;48.100;11.776;2022-08-19T10:21:35;94990.34;;;23.20;72.20
34185;BME280;20454;48.100;11.776;2022-08-19T10:24:04;94982.19;;;23.25;71.55
34185;BME280;20454;48.100;11.776;2022-08-19T10:26:37;94975.63;;;23.35;73.05
34185;BME280;20454;48.100;11.776;2022-08-19T10:29:04;94976.88;;;23.31;71.28
34185;BME280;20454;48.100;11.776;2022-08-19T10:31:33;94967.19;;;23.25;71.80
34185;BME280;20454;48.100;11.776;2022-08-19T10:33:59;94969.69;;;23.16;70.41
34185;BME280;20454;48.100;11.776;2022-08-19T10:36:33;94971.72;;;23.15;70.80
34185;BME280;20454;48.100;11.776;2022-08-19T10:39:04;94980.56;;;23.24;70.73
34185;BME280;20454;48.100;11.776;2022-08-19T10:41:33;94977.66;;;23.35;71.93
34185;BME280;20454;48.100;11.776;2022-08-19T10:44:03;94976.63;;;23.66;70.68
34185;BME280;20454;48.100;11.776;2022-08-19T10:46:32;94969.53;;;23.84;68.05
34185;BME280;20454;48.100;11.776;2022-08-19T10:49:04;94973.19;;;23.92;67.41
34185;BME280;20454;48.100;11.776;2022-08-19T10:51:31;94976.91;;;23.78;67.50
34185;BME280;20454;48.100;11.776;2022-08-19T10:54:16;94975.00;;;23.65;68.69
34185;BME280;20454;48.100;11.776;2022-08-19T10:56:42;94973.34;;;23.67;70.26
34185;BME280;20454;48.100;11.776;2022-08-19T10:59:28;94966.88;;;23.67;68.53
34185;BME280;20454;48.100;11.776;2022-08-19T11:02:00;94975.44;;;23.60;67.79
34185;BME280;20454;48.100;11.776;2022-08-19T11:04:26;94965.44;;;23.41;68.13
34185;BME280;20454;48.100;11.776;2022-08-19T11:06:52;94952.56;;;23.30;69.28
34185;BME280;20454;48.100;11.776;2022-08-19T11:09:21;94954.28;;;23.17;70.22
34185;BME280;20454;48.100;11.776;2022-08-19T11:11:50;94944.97;;;23.06;70.42
34185;BME280;20454;48.100;11.776;2022-08-19T11:14:19;94941.78;;;22.97;71.50
34185;BME280;20454;48.100;11.776;2022-08-19T11:16:48;94943.38;;;23.01;72.93
34185;BME280;20454;48.100;11.776;2022-08-19T11:19:16;94947.44;;;23.04;70.71
34185;BME280;20454;48.100;11.776;2022-08-19T11:21:48;94955.56;;;23.02;72.20
34185;BME280;20454;48.100;11.776;2022-08-19T11:24:23;94969.34;;;22.96;73.18
34185;BME280;20454;48.100;11.776;2022-08-19T11:26:51;94962.09;;;22.92;73.94
34185;BME280;20454;48.100;11.776;2022-08-19T11:29:20;94949.47;;;23.00;74.01
34185;BME280;20454;48.100;11.776;2022-08-19T11:31:49;94943.53;;;23.38;74.18
34185;BME280;20454;48.100;11.776;2022-08-19T11:34:26;94944.75;;;23.85;71.38
34185;BME280;20454;48.100;11.776;2022-08-19T11:36:55;94938.88;;;24.09;69.15
34185;BME280;20454;48.100;11.776;2022-08-19T11:39:28;94935.88;;;24.23;66.33
34185;BME280;20454;48.100;11.776;2022-08-19T11:41:55;94931.25;;;24.73;66.18
34185;BME280;20454;48.100;11.776;2022-08-19T11:44:22;94930.84;;;26.04;62.97
34185;BME280;20454;48.100;11.776;2022-08-19T11:46:48;94927.75;;;27.34;57.38
34185;BME280;20454;48.100;11.776;2022-08-19T11:49:17;94926.44;;;28.35;53.52
34185;BME280;20454;48.100;11.776;2022-08-19T11:51:44;94928.25;;;29.02;48.95
34185;BME280;20454;48.100;11.776;2022-08-19T11:54:16;94923.81;;;29.26;49.46
34185;BME280;20454;48.100;11.776;2022-08-19T11:56:43;94916.59;;;28.80;49.79
34185;BME280;20454;48.100;11.776;2022-08-19T11:59:09;94923.09;;;28.24;51.95
34185;BME280;20454;48.100;11.776;2022-08-19T12:01:36;94931.28;;;27.74;52.07
34185;BME280;20454;48.100;11.776;2022-08-19T12:04:02;94930.69;;;27.31;53.91
34185;BME280;20454;48.100;11.776;2022-08-19T12:06:31;94938.00;;;27.16;53.92
34185;BME280;20454;48.100;11.776;2022-08-19T12:09:04;94938.16;;;26.89;55.39
34185;BME280;20454;48.100;11.776;2022-08-19T12:11:31;94943.91;;;26.67;55.74
34185;BME280;20454;48.100;11.776;2022-08-19T12:13:57;94943.19;;;26.40;56.15
34185;BME280;20454;48.100;11.776;2022-08-19T12:16:28;94944.06;;;25.94;57.75
34185;BME280;20454;48.100;11.776;2022-08-19T12:18:55;94949.72;;;25.48;60.02
34185;BME280;20454;48.100;11.776;2022-08-19T12:21:26;94947.97;;;24.98;62.07
34185;BME280;20454;48.100;11.776;2022-08-19T12:23:55;94948.16;;;24.50;64.93
34185;BME280;20454;48.100;11.776;2022-08-19T12:26:22;94957.13;;;24.12;65.28
34185;BME280;20454;48.100;11.776;2022-08-19T12:28:48;94968.41;;;23.75;66.24
34185;BME280;20454;48.100;11.776;2022-08-19T12:31:14;94962.13;;;23.46;67.81
34185;BME280;20454;48.100;11.776;2022-08-19T12:33:41;94972.00;;;23.31;68.62
34185;BME280;20454;48.100;11.776;2022-08-19T12:36:10;94972.91;;;23.14;67.50
34185;BME280;20454;48.100;11.776;2022-08-19T12:38:38;94972.97;;;23.04;68.96
34185;BME280;20454;48.100;11.776;2022-08-19T12:41:05;94984.38;;;22.97;69.49
34185;BME280;20454;48.100;11.776;2022-08-19T12:43:32;94977.75;;;23.14;69.23
34185;BME280;20454;48.100;11.776;2022-08-19T12:46:00;94970.34;;;23.85;66.99
34185;BME280;20454;48.100;11.776;2022-08-19T12:48:26;94971.13;;;25.00;63.12
34185;BME280;20454;48.100;11.776;2022-08-19T12:50:52;94966.47;;;25.69;58.42
34185;BME280;20454;48.100;11.776;2022-08-19T12:53:18;94961.22;;;26.37;56.35
34185;BME280;20454;48.100;11.776;2022-08-19T12:55:43;94970.81;;;27.43;53.92
34185;BME280;20454;48.100;11.776;2022-08-19T12:58:10;94970.13;;;27.91;51.38
34185;BME280;20454;48.100;11.776;2022-08-19T13:00:36;94967.78;;;27.86;50.44
34185;BME280;20454;48.100;11.776;2022-08-19T13:03:02;94964.94;;;28.18;50.28
34185;BME280;20454;48.100;11.776;2022-08-19T13:05:31;94981.22;;;28.05;50.60
34185;BME280;20454;48.100;11.776;2022-08-19T13:08:00;94973.63;;;28.14;50.97
34185;BME280;20454;48.100;11.776;2022-08-19T13:10:33;94963.84;;;28.60;49.97
34185;BME280;20454;48.100;11.776;2022-08-19T13:13:07;94969.75;;;28.97;48.87
34185;BME280;20454;48.100;11.776;2022-08-19T13:15:40;94959.91;;;29.11;47.91
34185;BME280;20454;48.100;11.776;2022-08-19T13:18:09;94964.56;;;29.46;48.12
34185;BME280;20454;48.100;11.776;2022-08-19T13:20:37;94968.28;;;29.59;46.51
34185;BME280;20454;48.100;11.776;2022-08-19T13:23:03;94964.34;;;29.28;46.29
34185;BME280;20454;48.100;11.776;2022-08-19T13:25:30;94955.44;;;29.63;46.90
34185;BME280;20454;48.100;11.776;2022-08-19T13:27:56;94953.75;;;29.91;45.84
34185;BME280;20454;48.100;11.776;2022-08-19T13:30:22;94946.16;;;29.84;44.75
34185;BME280;20454;48.100;11.776;2022-08-19T13:33:08;94939.84;;;29.89;45.16
34185;BME280;20454;48.100;11.776;2022-08-19T13:35:50;94955.03;;;29.36;46.57
34185;BME280;20454;48.100;11.776;2022-08-19T13:38:20;94948.69;;;28.59;46.99
34185;BME280;20454;48.100;11.776;2022-08-19T13:40:47;94957.94;;;27.71;49.36
34185;BME280;20454;48.100;11.776;2022-08-19T13:43:15;94962.59;;;26.90;51.43
34185;BME280;20454;48.100;11.776;2022-08-19T13:45:42;94962.06;;;26.34;53.48
34185;BME280;20454;48.100;11.776;2022-08-19T13:48:09;94959.06;;;26.21;54.32
34185;BME280;20454;48.100;11.776;2022-08-19T13:50:40;94964.97;;;26.30;54.30
34185;BME280;20454;48.100;11.776;2022-08-19T13:53:09;94958.91;;;26.28;53.71
34185;BME280;20454;48.100;11.776;2022-08-19T13:55:38;94962.03;;;26.14;54.38
34185;BME280;20454;48.100;11.776;2022-08-19T13:58:05;94963.09;;;26.01;54.35
34185;BME280;20454;48.100;11.776;2022-08-19T14:00:38;94961.25;;;25.87;53.41
34185;BME280;20454;48.100;11.776;2022-08-19T14:03:05;94967.03;;;25.84;53.91
34185;BME280;20454;48.100;11.776;2022-08-19T14:05:32;94965.41;;;25.83;54.57
34185;BME280;20454;48.100;11.776;2022-08-19T14:07:58;94963.03;;;25.78;55.13
34185;BME280;20454;48.100;11.776;2022-08-19T14:10:25;94962.44;;;25.67;55.44
34185;BME280;20454;48.100;11.776;2022-08-19T14:12:56;94964.59;;;25.33;56.56
34185;BME280;20454;48.100;11.776;2022-08-19T14:15:24;94964.88;;;25.12;57.50
34185;BME280;20454;48.100;11.776;2022-08-19T14:17:50;94962.41;;;24.84;58.39
34185;BME280;20454;48.100;11.776;2022-08-19T14:20:16;94968.50;;;24.49;60.64
34185;BME280;20454;48.100;11.776;2022-08-19T14:22:44;94977.81;;;24.16;62.16
34185;BME280;20454;48.100;11.776;2022-08-19T14:25:14;94982.16;;;23.87;63.71
34185;BME280;20454;48.100;11.776;2022-08-19T14:27:41;94986.34;;;23.68;64.43
34185;BME280;20454;48.100;11.776;2022-08-19T14:30:10;94986.06;;;23.49;66.36
34185;BME280;20454;48.100;11.776;2022-08-19T14:32:36;94990.25;;;23.34;66.59
34185;BME280;20454;48.100;11.776;2022-08-19T14:35:04;94993.56;;;23.18;67.38
34185;BME280;20454;48.100;11.776;2022-08-19T14:37:30;94994.03;;;23.06;68.65
34185;BME280;20454;48.100;11.776;2022-08-19T14:39:56;94994.44;;;23.05;68.45
34185;BME280;20454;48.100;11.776;2022-08-19T14:42:24;94978.97;;;23.20;69.82
34185;BME280;20454;48.100;11.776;2022-08-19T14:44:50;94968.25;;;23.48;67.94
34185;BME280;20454;48.100;11.776;2022-08-19T14:47:16;94961.84;;;23.88;66.25
34185;BME280;20454;48.100;11.776;2022-08-19T14:49:41;94962.38;;;24.13;65.96
34185;BME280;20454;48.100;11.776;2022-08-19T14:52:07;94961.28;;;24.41;64.34
34185;BME280;20454;48.100;11.776;2022-08-19T14:54:33;94964.69;;;24.62;62.88
34185;BME280;20454;48.100;11.776;2022-08-19T14:56:59;94960.41;;;24.81;62.54
34185;BME280;20454;48.100;11.776;2022-08-19T14:59:24;94954.50;;;24.95;60.54
34185;BME280;20454;48.100;11.776;2022-08-19T15:01:50;94957.31;;;24.98;59.45
34185;BME280;20454;48.100;11.776;2022-08-19T15:04:16;94958.28;;;24.88;60.12
34185;BME280;20454;48.100;11.776;2022-08-19T15:06:42;94969.84;;;24.74;60.69
34185;BME280;20454;48.100;11.776;2022-08-19T15:09:09;94964.38;;;24.53;60.97
34185;BME280;20454;48.100;11.776;2022-08-19T15:11:35;94966.59;;;24.35;62.50
34185;BME280;20454;48.100;11.776;2022-08-19T15:14:03;94969.56;;;24.25;63.23
34185;BME280;20454;48.100;11.776;2022-08-19T15:16:31;94975.94;;;23.99;62.45
34185;BME280;20454;48.100;11.776;2022-08-19T15:18:59;94997.69;;;23.72;63.35
34185;BME280;20454;48.100;11.776;2022-08-19T15:21:27;94993.31;;;23.57;64.81
34185;BME280;20454;48.100;11.776;2022-08-19T15:23:55;94999.88;;;23.47;66.00
34185;BME280;20454;48.100;11.776;2022-08-19T15:26:20;94998.41;;;23.25;66.45
34185;BME280;20454;48.100;11.776;2022-08-19T15:28:46;95006.16;;;23.10;67.42
34185;BME280;20454;48.100;11.776;2022-08-19T15:31:19;95010.72;;;22.94;67.88
34185;BME280;20454;48.100;11.776;2022-08-19T15:33:46;95014.00;;;22.89;68.12
34185;BME280;20454;48.100;11.776;2022-08-19T15:36:14;95025.31;;;22.96;68.11
34185;BME280;20454;48.100;11.776;2022-08-19T15:38:41;95024.44;;;23.09;67.29
34185;BME280;20454;48.100;11.776;2022-08-19T15:41:18;95030.84;;;23.31;67.04
34185;BME280;20454;48.100;11.776;2022-08-19T15:44:03;95021.72;;;23.57;64.98
34185;BME280;20454;48.100;11.776;2022-08-19T15:46:31;95028.84;;;23.82;64.92
34185;BME280;20454;48.100;11.776;2022-08-19T15:48:59;95021.00;;;24.00;63.29
34185;BME280;20454;48.100;11.776;2022-08-19T15:51:26;95015.22;;;24.11;61.89
34185;BME280;20454;48.100;11.776;2022-08-19T15:53:56;95018.91;;;24.08;61.89
34185;BME280;20454;48.100;11.776;2022-08-19T15:56:22;95022.59;;;24.01;62.13
34185;BME280;20454;48.100;11.776;2022-08-19T15:58:48;95018.69;;;23.81;62.44
34185;BME280;20454;48.100;11.776;2022-08-19T16:01:33;95018.41;;;23.65;63.63
34185;BME280;20454;48.100;11.776;2022-08-19T16:03:59;95035.19;;;23.46;64.41
34185;BME280;20454;48.100;11.776;2022-08-19T16:06:52;95033.72;;;23.24;65.39
34185;BME280;20454;48.100;11.776;2022-08-19T16:09:22;95040.63;;;23.23;64.86
34185;BME280;20454;48.100;11.776;2022-08-19T16:11:48;95038.91;;;23.32;65.97
34185;BME280;20454;48.100;11.776;2022-08-19T16:14:17;95051.91;;;23.37;68.36
34185;BME280;20454;48.100;11.776;2022-08-19T16:16:44;95054.66;;;23.47;69.61
34185;BME280;20454;48.100;11.776;2022-08-19T16:19:16;95057.03;;;23.56;70.35
34185;BME280;20454;48.100;11.776;2022-08-19T16:21:49;95055.81;;;23.53;70.33
34185;BME280;20454;48.100;11.776;2022-08-19T16:24:19;95050.19;;;23.46;70.42
34185;BME280;20454;48.100;11.776;2022-08-19T16:26:45;95051.44;;;23.42;71.08
34185;BME280;20454;48.100;11.776;2022-08-19T16:29:13;95047.84;;;23.34;71.19
34185;BME280;20454;48.100;11.776;2022-08-19T16:31:42;95047.09;;;23.23;72.50
34185;BME280;20454;48.100;11.776;2022-08-19T16:34:10;95049.56;;;23.18;72.13
34185;BME280;20454;48.100;11.776;2022-08-19T16:36:36;95058.84;;;23.25;71.51
34185;BME280;20454;48.100;11.776;2022-08-19T16:39:09;95053.19;;;23.22;69.13
34185;BME280;20454;48.100;11.776;2022-08-19T16:41:35;95071.06;;;23.15;69.02
34185;BME280;20454;48.100;11.776;2022-08-19T16:44:04;95064.19;;;23.06;70.26
34185;BME280;20454;48.100;11.776;2022-08-19T16:46:30;95067.06;;;22.99;70.16
34185;BME280;20454;48.100;11.776;2022-08-19T16:48:56;95059.41;;;22.85;71.30
34185;BME280;20454;48.100;11.776;2022-08-19T16:51:22;95073.66;;;22.75;71.87
34185;BME280;20454;48.100;11.776;2022-08-19T16:53:47;95074.50;;;22.58;72.03
34185;BME280;20454;48.100;11.776;2022-08-19T16:56:13;95087.44;;;22.41;72.48
34185;BME280;20454;48.100;11.776;2022-08-19T16:58:40;95089.50;;;22.23;72.30
34185;BME280;20454;48.100;11.776;2022-08-19T17:19:14;95123.84;;;21.52;75.66